createdAt,value
2017-08-28T00:00:19.387Z,19.8
2017-08-28T00:00:59.869Z,19.71
2017-08-28T00:01:40.263Z,19.72
2017-08-28T00:02:20.634Z,19.75
2017-08-28T00:03:01.083Z,19.67
2017-08-28T00:03:41.513Z,19.6
2017-08-28T00:04:21.931Z,19.64
2017-08-28T00:05:02.353Z,19.62
2017-08-28T00:05:42.700Z,19.58
2017-08-28T00:06:23.147Z,19.62
2017-08-28T00:07:03.532Z,19.58
2017-08-28T00:07:43.980Z,19.62
2017-08-28T00:08:24.443Z,19.58
2017-08-28T00:09:04.764Z,19.58
2017-08-28T00:09:45.220Z,19.55
2017-08-28T00:10:25.596Z,19.57
2017-08-28T00:11:06.033Z,19.61
2017-08-28T00:11:46.529Z,19.57
2017-08-28T00:12:26.829Z,19.61
2017-08-28T00:13:07.241Z,19.52
2017-08-28T00:13:47.693Z,19.58
2017-08-28T00:14:28.106Z,19.6
2017-08-28T00:15:08.664Z,19.65
2017-08-28T00:15:49.115Z,19.6
2017-08-28T00:16:29.613Z,19.58
2017-08-28T00:17:10.068Z,19.57
2017-08-28T00:17:50.428Z,19.6
2017-08-28T00:18:30.862Z,19.52
2017-08-28T00:19:11.277Z,19.53
2017-08-28T00:19:51.665Z,19.58
2017-08-28T00:20:32.080Z,19.6
2017-08-28T00:21:12.427Z,19.55
2017-08-28T00:21:52.859Z,19.62
2017-08-28T00:22:33.367Z,19.6
2017-08-28T00:23:13.768Z,19.6
2017-08-28T00:23:54.137Z,19.6
2017-08-28T00:24:34.588Z,19.64
2017-08-28T00:25:15.110Z,19.58
2017-08-28T00:25:55.454Z,19.47
2017-08-28T00:26:35.883Z,19.55
2017-08-28T00:27:16.303Z,19.52
2017-08-28T00:27:56.710Z,19.46
2017-08-28T00:28:37.138Z,19.52
2017-08-28T00:29:17.518Z,19.47
2017-08-28T00:29:57.929Z,19.45
2017-08-28T00:30:38.304Z,19.47
2017-08-28T00:31:18.718Z,19.57
2017-08-28T00:31:59.088Z,19.49
2017-08-28T00:32:39.564Z,19.52
2017-08-28T00:33:20.087Z,19.47
2017-08-28T00:34:00.518Z,19.5
2017-08-28T00:34:40.968Z,19.45
2017-08-28T00:35:21.363Z,19.46
2017-08-28T00:36:01.848Z,19.46
2017-08-28T00:36:42.252Z,19.46
2017-08-28T00:37:22.655Z,19.5
2017-08-28T00:38:03.105Z,19.5
2017-08-28T00:38:43.525Z,19.49
2017-08-28T00:39:24.037Z,19.53
2017-08-28T00:40:04.460Z,19.5
2017-08-28T00:40:44.936Z,19.5
2017-08-28T00:41:25.318Z,19.47
2017-08-28T00:42:05.770Z,19.43
2017-08-28T00:42:46.177Z,19.45
2017-08-28T00:43:26.521Z,19.47
2017-08-28T00:44:07.034Z,19.55
2017-08-28T00:44:47.444Z,19.47
2017-08-28T00:45:27.927Z,19.47
2017-08-28T00:46:08.311Z,19.53
2017-08-28T00:46:48.733Z,19.39
2017-08-28T00:47:29.188Z,19.38
2017-08-28T00:48:09.631Z,19.28
2017-08-28T00:48:50.015Z,19.25
2017-08-28T00:49:30.432Z,19.13
2017-08-28T00:50:10.840Z,19.12
2017-08-28T00:50:51.293Z,18.99
2017-08-28T00:51:31.666Z,18.96
2017-08-28T00:52:12.058Z,19.02
2017-08-28T00:52:52.429Z,19.02
2017-08-28T00:53:32.806Z,19.05
2017-08-28T00:54:13.364Z,18.94
2017-08-28T00:54:53.711Z,18.93
2017-08-28T00:55:34.056Z,18.83
2017-08-28T00:56:14.435Z,18.78
2017-08-28T00:56:54.862Z,18.84
2017-08-28T00:57:35.319Z,18.82
2017-08-28T00:58:15.779Z,18.82
2017-08-28T00:58:56.195Z,18.83
2017-08-28T00:59:36.555Z,18.86
2017-08-28T01:00:17.044Z,18.83
2017-08-28T01:00:57.670Z,18.87
2017-08-28T01:01:38.073Z,18.9
2017-08-28T01:02:18.524Z,18.93
2017-08-28T01:02:58.979Z,18.9
2017-08-28T01:03:39.469Z,18.89
2017-08-28T01:04:19.893Z,18.96
2017-08-28T01:05:00.325Z,18.96
2017-08-28T01:05:40.712Z,18.86
2017-08-28T01:06:21.306Z,18.93
2017-08-28T01:07:01.698Z,18.86
2017-08-28T01:07:42.128Z,18.79
2017-08-28T01:08:22.561Z,18.83
2017-08-28T01:09:03.009Z,18.82
2017-08-28T01:09:43.383Z,18.83
2017-08-28T01:10:23.806Z,18.87
2017-08-28T01:11:04.216Z,18.79
2017-08-28T01:11:44.592Z,18.69
2017-08-28T01:12:24.973Z,18.6
2017-08-28T01:13:05.411Z,18.6
2017-08-28T01:13:45.867Z,18.57
2017-08-28T01:14:26.211Z,18.56
2017-08-28T01:15:06.585Z,18.65
2017-08-28T01:15:47.027Z,18.66
2017-08-28T01:16:27.447Z,18.59
2017-08-28T01:17:07.923Z,18.6
2017-08-28T01:17:48.360Z,18.47
2017-08-28T01:18:28.767Z,18.5
2017-08-28T01:19:09.107Z,18.49
2017-08-28T01:19:49.644Z,18.39
2017-08-28T01:20:30.053Z,18.36
2017-08-28T01:21:10.464Z,18.34
2017-08-28T01:21:51.047Z,18.36
2017-08-28T01:22:31.463Z,18.31
2017-08-28T01:23:11.841Z,18.29
2017-08-28T01:23:52.248Z,18.26
2017-08-28T01:24:32.634Z,18.31
2017-08-28T01:25:13.046Z,18.26
2017-08-28T01:25:53.465Z,18.29
2017-08-28T01:26:33.929Z,18.21
2017-08-28T01:27:14.339Z,18.23
2017-08-28T01:27:54.761Z,18.31
2017-08-28T01:28:35.171Z,18.31
2017-08-28T01:29:15.599Z,18.29
2017-08-28T01:29:56.064Z,18.35
2017-08-28T01:30:36.397Z,18.2
2017-08-28T01:31:16.886Z,18.26
2017-08-28T01:31:57.252Z,18.28
2017-08-28T01:32:37.693Z,18.31
2017-08-28T01:33:18.025Z,18.17
2017-08-28T01:33:58.466Z,18.23
2017-08-28T01:34:38.847Z,18.19
2017-08-28T01:35:19.286Z,18.2
2017-08-28T01:35:59.701Z,18.19
2017-08-28T01:36:40.153Z,18.16
2017-08-28T01:37:20.551Z,18.17
2017-08-28T01:38:01.131Z,18.28
2017-08-28T01:38:41.402Z,18.26
2017-08-28T01:39:21.841Z,18.35
2017-08-28T01:40:02.233Z,18.28
2017-08-28T01:40:42.677Z,18.34
2017-08-28T01:41:23.072Z,18.32
2017-08-28T01:42:03.572Z,18.35
2017-08-28T01:42:44.061Z,18.47
2017-08-28T01:43:24.558Z,18.39
2017-08-28T01:44:04.932Z,18.46
2017-08-28T01:44:45.363Z,18.5
2017-08-28T01:45:25.794Z,18.42
2017-08-28T01:46:06.217Z,18.44
2017-08-28T01:46:46.658Z,18.47
2017-08-28T01:47:27.048Z,18.49
2017-08-28T01:48:07.483Z,18.53
2017-08-28T01:48:47.933Z,18.5
2017-08-28T01:49:28.406Z,18.54
2017-08-28T01:50:08.798Z,18.6
2017-08-28T01:50:49.266Z,18.6
2017-08-28T01:51:29.655Z,18.64
2017-08-28T01:52:10.081Z,18.64
2017-08-28T01:52:50.478Z,18.6
2017-08-28T01:53:30.935Z,18.59
2017-08-28T01:54:11.379Z,18.72
2017-08-28T01:54:51.857Z,18.62
2017-08-28T01:55:32.253Z,18.74
2017-08-28T01:56:12.729Z,18.74
2017-08-28T01:56:53.095Z,18.72
2017-08-28T01:57:33.572Z,18.68
2017-08-28T01:58:13.990Z,18.66
2017-08-28T01:58:54.487Z,18.72
2017-08-28T01:59:34.871Z,18.62
2017-08-28T02:00:15.303Z,18.68
2017-08-28T02:00:55.663Z,18.62
2017-08-28T02:01:36.092Z,18.65
2017-08-28T02:02:16.580Z,18.66
2017-08-28T02:02:56.959Z,18.62
2017-08-28T02:03:37.359Z,18.57
2017-08-28T02:04:17.794Z,18.62
2017-08-28T02:04:58.173Z,18.72
2017-08-28T02:05:38.583Z,18.66
2017-08-28T02:06:19.080Z,18.64
2017-08-28T02:06:59.461Z,18.6
2017-08-28T02:07:39.870Z,18.66
2017-08-28T02:08:20.358Z,18.65
2017-08-28T02:09:00.746Z,18.65
2017-08-28T02:09:41.197Z,18.64
2017-08-28T02:10:21.601Z,18.62
2017-08-28T02:11:02.004Z,18.57
2017-08-28T02:11:42.406Z,18.66
2017-08-28T02:12:22.905Z,18.65
2017-08-28T02:13:03.328Z,18.6
2017-08-28T02:13:43.800Z,18.6
2017-08-28T02:14:24.182Z,18.57
2017-08-28T02:15:04.574Z,18.57
2017-08-28T02:15:44.975Z,18.54
2017-08-28T02:16:25.356Z,18.6
2017-08-28T02:17:05.801Z,18.54
2017-08-28T02:17:46.151Z,18.62
2017-08-28T02:18:26.606Z,18.49
2017-08-28T02:19:06.967Z,18.56
2017-08-28T02:19:47.342Z,18.5
2017-08-28T02:20:27.782Z,18.54
2017-08-28T02:21:08.300Z,18.54
2017-08-28T02:21:48.749Z,18.5
2017-08-28T02:22:29.242Z,18.53
2017-08-28T02:23:09.706Z,18.5
2017-08-28T02:23:50.006Z,18.5
2017-08-28T02:24:30.465Z,18.49
2017-08-28T02:25:10.887Z,18.42
2017-08-28T02:25:51.319Z,18.36
2017-08-28T02:26:31.679Z,18.39
2017-08-28T02:27:12.089Z,18.38
2017-08-28T02:27:52.531Z,18.31
2017-08-28T02:28:32.937Z,18.34
2017-08-28T02:29:13.371Z,18.34
2017-08-28T02:29:53.730Z,18.38
2017-08-28T02:30:34.190Z,18.39
2017-08-28T02:31:14.577Z,18.38
2017-08-28T02:31:55.015Z,18.38
2017-08-28T02:32:35.404Z,18.42
2017-08-28T02:33:15.783Z,18.49
2017-08-28T02:33:56.231Z,18.46
2017-08-28T02:34:36.646Z,18.47
2017-08-28T02:35:17.004Z,18.41
2017-08-28T02:35:57.470Z,18.42
2017-08-28T02:36:37.817Z,18.35
2017-08-28T02:37:18.266Z,18.38
2017-08-28T02:37:58.698Z,18.38
2017-08-28T02:38:39.201Z,18.29
2017-08-28T02:39:19.607Z,18.36
2017-08-28T02:40:00.007Z,18.34
2017-08-28T02:40:40.515Z,18.32
2017-08-28T02:41:20.916Z,18.31
2017-08-28T02:42:01.290Z,18.34
2017-08-28T02:42:41.803Z,18.32
2017-08-28T02:43:22.273Z,18.41
2017-08-28T02:44:02.623Z,18.34
2017-08-28T02:44:43.031Z,18.36
2017-08-28T02:45:23.502Z,18.29
2017-08-28T02:46:03.914Z,18.16
2017-08-28T02:46:44.361Z,18.16
2017-08-28T02:47:24.666Z,18.23
2017-08-28T02:48:05.133Z,18.16
2017-08-28T02:48:45.510Z,18.25
2017-08-28T02:49:25.931Z,18.2
2017-08-28T02:50:06.348Z,18.19
2017-08-28T02:52:09.624Z,18.14
2017-08-28T02:53:15.031Z,18.21
2017-08-28T02:53:56.666Z,18.19
2017-08-28T02:54:37.103Z,18.21
2017-08-28T02:55:17.528Z,18.17
2017-08-28T02:55:57.997Z,18.2
2017-08-28T02:56:38.377Z,18.2
2017-08-28T02:57:18.792Z,18.14
2017-08-28T02:57:59.217Z,18.25
2017-08-28T02:58:39.631Z,18.2
2017-08-28T02:59:20.025Z,18.17
2017-08-28T03:00:00.420Z,18.17
2017-08-28T03:00:40.850Z,18.2
2017-08-28T03:01:21.255Z,18.19
2017-08-28T03:02:01.706Z,18.1
2017-08-28T03:02:42.012Z,18.05
2017-08-28T03:03:22.440Z,18.11
2017-08-28T03:04:02.812Z,18.16
2017-08-28T03:04:43.299Z,18.1
2017-08-28T03:05:23.672Z,18.1
2017-08-28T03:06:04.143Z,18.16
2017-08-28T03:06:44.556Z,18.07
2017-08-28T03:07:25.077Z,18.16
2017-08-28T03:08:05.563Z,18.17
2017-08-28T03:08:45.923Z,18.23
2017-08-28T03:09:26.397Z,18.16
2017-08-28T03:10:06.817Z,18.16
2017-08-28T03:10:47.326Z,18.09
2017-08-28T03:11:27.702Z,18.16
2017-08-28T03:12:08.158Z,18.1
2017-08-28T03:12:48.590Z,18.09
2017-08-28T03:13:29.059Z,18.05
2017-08-28T03:14:09.455Z,18.01
2017-08-28T03:14:49.917Z,17.95
2017-08-28T03:15:30.381Z,17.95
2017-08-28T03:16:10.862Z,17.96
2017-08-28T03:16:51.297Z,17.95
2017-08-28T03:17:31.907Z,17.92
2017-08-28T03:18:12.314Z,17.81
2017-08-28T03:18:52.736Z,17.77
2017-08-28T03:19:33.169Z,17.86
2017-08-28T03:20:13.632Z,17.74
2017-08-28T03:20:53.998Z,17.68
2017-08-28T03:21:34.446Z,17.79
2017-08-28T03:22:14.855Z,17.71
2017-08-28T03:22:55.303Z,17.79
2017-08-28T03:23:35.650Z,17.73
2017-08-28T03:24:16.043Z,17.7
2017-08-28T03:24:56.543Z,17.71
2017-08-28T03:25:36.989Z,17.7
2017-08-28T03:26:17.315Z,17.77
2017-08-28T03:26:57.732Z,17.83
2017-08-28T03:27:38.132Z,17.83
2017-08-28T03:28:18.503Z,17.86
2017-08-28T03:28:58.941Z,17.83
2017-08-28T03:29:39.305Z,17.91
2017-08-28T03:30:19.724Z,17.8
2017-08-28T03:31:00.109Z,17.94
2017-08-28T03:31:40.572Z,17.98
2017-08-28T03:32:20.965Z,17.95
2017-08-28T03:34:19.824Z,18.02
2017-08-28T03:35:14.325Z,17.98
2017-08-28T03:35:54.595Z,18.01
2017-08-28T03:36:35.073Z,18.05
2017-08-28T03:37:15.393Z,18.07
2017-08-28T03:37:55.897Z,18.1
2017-08-28T03:38:36.256Z,18.11
2017-08-28T03:39:16.665Z,18.1
2017-08-28T03:39:57.088Z,18.1
2017-08-28T03:40:37.531Z,18.04
2017-08-28T03:41:18.002Z,18.07
2017-08-28T03:41:58.548Z,18.02
2017-08-28T03:42:38.911Z,18.07
2017-08-28T03:43:19.449Z,18.04
2017-08-28T03:43:59.957Z,18.1
2017-08-28T03:44:40.555Z,18.04
2017-08-28T03:45:20.894Z,18.13
2017-08-28T03:46:01.337Z,18.16
2017-08-28T03:46:41.735Z,18.19
2017-08-28T03:47:22.129Z,18.13
2017-08-28T03:48:02.550Z,18.16
2017-08-28T03:48:42.935Z,18.09
2017-08-28T03:49:23.513Z,18.13
2017-08-28T03:50:03.973Z,18.07
2017-08-28T03:50:44.422Z,18.11
2017-08-28T03:51:24.833Z,18.13
2017-08-28T03:52:05.279Z,18.11
2017-08-28T03:52:45.685Z,18.07
2017-08-28T03:53:26.070Z,18.07
2017-08-28T03:54:06.488Z,18.07
2017-08-28T03:54:46.904Z,17.99
2017-08-28T03:55:27.483Z,18.11
2017-08-28T03:56:07.942Z,18.1
2017-08-28T03:56:48.342Z,18.11
2017-08-28T03:57:28.811Z,18.13
2017-08-28T03:58:09.245Z,18.11
2017-08-28T03:58:49.635Z,18.13
2017-08-28T03:59:30.081Z,18.07
2017-08-28T04:00:10.514Z,18.11
2017-08-28T04:00:50.898Z,18.05
2017-08-28T04:01:31.284Z,18.07
2017-08-28T04:02:11.743Z,18.09
2017-08-28T04:02:52.189Z,17.98
2017-08-28T04:03:32.526Z,18.04
2017-08-28T04:04:12.953Z,18.04
2017-08-28T04:04:53.445Z,18.05
2017-08-28T04:05:33.913Z,17.91
2017-08-28T04:06:14.382Z,18.02
2017-08-28T04:06:54.914Z,18.02
2017-08-28T04:07:35.355Z,18.02
2017-08-28T04:08:15.790Z,18.05
2017-08-28T04:08:56.170Z,18.05
2017-08-28T04:09:36.618Z,18.09
2017-08-28T04:10:17.059Z,17.99
2017-08-28T04:10:57.519Z,18.09
2017-08-28T04:11:37.952Z,18.05
2017-08-28T04:12:18.363Z,18.05
2017-08-28T04:12:58.737Z,18.02
2017-08-28T04:13:39.211Z,18.04
2017-08-28T04:14:19.610Z,17.99
2017-08-28T04:14:59.953Z,18.01
2017-08-28T04:15:40.412Z,18.05
2017-08-28T04:16:20.816Z,17.96
2017-08-28T04:17:01.204Z,17.94
2017-08-28T04:17:41.588Z,17.98
2017-08-28T04:18:21.954Z,17.95
2017-08-28T04:19:02.412Z,17.94
2017-08-28T04:19:42.834Z,17.94
2017-08-28T04:20:23.298Z,17.94
2017-08-28T04:21:03.696Z,17.96
2017-08-28T04:21:44.100Z,17.96
2017-08-28T04:22:24.528Z,17.94
2017-08-28T04:23:04.937Z,17.96
2017-08-28T04:23:45.416Z,17.92
2017-08-28T04:24:25.852Z,17.92
2017-08-28T04:25:06.253Z,17.96
2017-08-28T04:25:46.749Z,17.96
2017-08-28T04:26:27.145Z,17.99
2017-08-28T04:27:07.524Z,17.98
2017-08-28T04:27:47.978Z,17.89
2017-08-28T04:28:28.380Z,17.87
2017-08-28T04:29:08.770Z,17.84
2017-08-28T04:29:49.340Z,17.84
2017-08-28T04:30:29.755Z,17.86
2017-08-28T04:31:10.229Z,17.81
2017-08-28T04:31:50.597Z,17.86
2017-08-28T04:32:31.021Z,17.81
2017-08-28T04:33:11.394Z,17.89
2017-08-28T04:33:51.868Z,17.92
2017-08-28T04:34:32.248Z,17.84
2017-08-28T04:35:12.642Z,17.89
2017-08-28T04:35:53.087Z,17.87
2017-08-28T04:36:33.530Z,17.84
2017-08-28T04:37:13.979Z,17.92
2017-08-28T04:37:54.439Z,17.91
2017-08-28T04:38:34.869Z,17.92
2017-08-28T04:39:15.272Z,17.84
2017-08-28T04:39:55.629Z,17.96
2017-08-28T04:40:36.057Z,17.87
2017-08-28T04:41:16.537Z,17.95
2017-08-28T04:41:56.907Z,17.87
2017-08-28T04:42:37.330Z,17.94
2017-08-28T04:43:17.740Z,17.99
2017-08-28T04:43:58.203Z,18.01
2017-08-28T04:44:38.590Z,17.95
2017-08-28T04:45:19.005Z,17.95
2017-08-28T04:45:59.448Z,17.94
2017-08-28T04:46:39.827Z,17.96
2017-08-28T04:47:20.245Z,17.91
2017-08-28T04:48:00.648Z,17.86
2017-08-28T04:48:41.138Z,17.84
2017-08-28T04:49:21.583Z,17.95
2017-08-28T04:50:01.991Z,17.92
2017-08-28T04:50:42.542Z,17.91
2017-08-28T04:51:22.923Z,17.92
2017-08-28T04:52:03.329Z,17.92
2017-08-28T04:52:43.716Z,17.95
2017-08-28T04:53:24.076Z,17.96
2017-08-28T04:54:04.524Z,18.02
2017-08-28T04:54:44.969Z,18.02
2017-08-28T04:55:25.326Z,18.07
2017-08-28T04:56:05.790Z,17.96
2017-08-28T04:56:46.201Z,17.94
2017-08-28T04:57:26.566Z,17.92
2017-08-28T04:58:06.967Z,17.91
2017-08-28T04:58:47.389Z,17.83
2017-08-28T04:59:27.818Z,17.81
2017-08-28T05:00:08.269Z,17.86
2017-08-28T05:00:48.610Z,17.86
2017-08-28T05:01:29.030Z,17.86
2017-08-28T05:02:09.425Z,17.89
2017-08-28T05:02:49.849Z,17.94
2017-08-28T05:03:30.246Z,17.91
2017-08-28T05:04:10.682Z,17.83
2017-08-28T05:04:51.016Z,17.94
2017-08-28T05:05:31.449Z,17.98
2017-08-28T05:06:11.859Z,17.99
2017-08-28T05:06:52.326Z,17.99
2017-08-28T05:07:32.775Z,17.98
2017-08-28T05:08:13.119Z,17.99
2017-08-28T05:08:53.562Z,18.02
2017-08-28T05:09:34.007Z,17.96
2017-08-28T05:10:14.396Z,18.09
2017-08-28T05:10:54.853Z,18.05
2017-08-28T05:11:35.758Z,17.99
2017-08-28T05:12:15.739Z,18.04
2017-08-28T05:12:56.157Z,18.09
2017-08-28T05:13:36.545Z,18.05
2017-08-28T05:14:17.142Z,18.09
2017-08-28T05:14:59.882Z,18.04
2017-08-28T05:15:40.344Z,18.11
2017-08-28T05:16:20.794Z,18.14
2017-08-28T05:17:01.206Z,18.16
2017-08-28T05:17:41.545Z,18.09
2017-08-28T05:18:21.977Z,18.16
2017-08-28T05:19:02.383Z,18.1
2017-08-28T05:19:43.024Z,18.09
2017-08-28T05:20:23.434Z,18.09
2017-08-28T05:21:03.790Z,18.07
2017-08-28T05:21:44.275Z,18.13
2017-08-28T05:22:25.378Z,18.14
2017-08-28T05:23:05.746Z,18.11
2017-08-28T05:23:46.210Z,18.11
2017-08-28T05:24:26.580Z,18.11
2017-08-28T05:25:06.942Z,18.13
2017-08-28T05:25:47.351Z,18.17
2017-08-28T05:26:27.856Z,18.19
2017-08-28T05:27:08.185Z,18.17
2017-08-28T05:27:48.621Z,18.26
2017-08-28T05:28:29.020Z,18.32
2017-08-28T05:29:09.792Z,18.31
2017-08-28T05:29:50.229Z,18.32
2017-08-28T05:30:30.609Z,18.28
2017-08-28T05:31:10.955Z,18.2
2017-08-28T05:31:51.492Z,18.31
2017-08-28T05:32:32.025Z,18.35
2017-08-28T05:33:12.433Z,18.31
2017-08-28T05:35:29.915Z,18.29
2017-08-28T05:36:35.268Z,18.31
2017-08-28T05:37:14.769Z,18.34
2017-08-28T05:37:55.102Z,18.34
2017-08-28T05:38:35.576Z,18.32
2017-08-28T05:39:16.008Z,18.34
2017-08-28T05:39:56.668Z,18.32
2017-08-28T05:40:37.086Z,18.42
2017-08-28T05:41:17.467Z,18.35
2017-08-28T05:41:57.916Z,18.44
2017-08-28T05:42:38.288Z,18.5
2017-08-28T05:43:18.775Z,18.6
2017-08-28T05:43:59.153Z,18.68
2017-08-28T05:44:39.571Z,18.64
2017-08-28T05:45:20.057Z,18.72
2017-08-28T05:46:00.441Z,18.69
2017-08-28T05:46:40.897Z,18.79
2017-08-28T05:47:21.359Z,18.87
2017-08-28T05:48:05.352Z,18.87
2017-08-28T05:48:45.832Z,18.93
2017-08-28T05:49:27.055Z,19.07
2017-08-28T05:50:07.488Z,19.1
2017-08-28T05:50:47.862Z,19.2
2017-08-28T05:51:28.263Z,19.23
2017-08-28T05:52:08.637Z,19.32
2017-08-28T05:52:49.088Z,19.45
2017-08-28T05:53:29.805Z,19.46
2017-08-28T05:54:10.200Z,19.62
2017-08-28T05:56:10.455Z,19.75
2017-08-28T05:56:50.645Z,19.75
2017-08-28T05:57:31.047Z,19.85
2017-08-28T05:58:11.542Z,19.78
2017-08-28T05:58:51.995Z,19.87
2017-08-28T05:59:32.422Z,19.75
2017-08-28T06:00:12.864Z,19.86
2017-08-28T06:00:53.402Z,19.86
2017-08-28T06:01:33.864Z,19.89
2017-08-28T06:02:14.304Z,19.83
2017-08-28T06:02:54.620Z,19.89
2017-08-28T06:03:35.099Z,19.9
2017-08-28T06:04:15.486Z,19.98
2017-08-28T06:04:55.867Z,19.86
2017-08-28T06:05:36.265Z,19.86
2017-08-28T06:06:16.695Z,19.9
2017-08-28T06:06:57.084Z,20.02
2017-08-28T06:07:37.518Z,20.07
2017-08-28T06:08:17.987Z,20.12
2017-08-28T06:08:58.351Z,20.22
2017-08-28T06:09:38.759Z,20.31
2017-08-28T06:10:19.210Z,20.33
2017-08-28T06:10:59.586Z,20.3
2017-08-28T06:11:40.031Z,20.31
2017-08-28T06:12:20.480Z,20.42
2017-08-28T06:13:00.788Z,20.44
2017-08-28T06:13:41.262Z,20.69
2017-08-28T06:14:21.657Z,20.83
2017-08-28T06:15:02.238Z,20.9
2017-08-28T06:15:42.592Z,21
2017-08-28T06:16:23.105Z,21.05
2017-08-28T06:17:03.497Z,21.01
2017-08-28T06:17:43.988Z,21.13
2017-08-28T06:18:24.400Z,21.24
2017-08-28T06:19:04.780Z,21.31
2017-08-28T06:19:46.881Z,21.34
2017-08-28T06:22:08.120Z,21.42
2017-08-28T06:22:58.558Z,21.53
2017-08-28T06:23:39.055Z,21.59
2017-08-28T06:24:19.412Z,21.59
2017-08-28T06:24:59.931Z,21.71
2017-08-28T06:25:40.359Z,21.79
2017-08-28T06:26:20.802Z,21.83
2017-08-28T06:27:01.206Z,21.89
2017-08-28T06:27:41.666Z,22.02
2017-08-28T06:28:22.092Z,21.96
2017-08-28T06:29:02.522Z,22.08
2017-08-28T06:29:43.107Z,22.17
2017-08-28T06:30:23.622Z,22.26
2017-08-28T06:31:03.974Z,22.2
2017-08-28T06:31:44.458Z,22.21
2017-08-28T06:32:24.897Z,22.2
2017-08-28T06:33:05.361Z,22.3
2017-08-28T06:33:45.716Z,22.23
2017-08-28T06:34:26.216Z,22.17
2017-08-28T06:35:06.587Z,22.06
2017-08-28T06:35:47.042Z,22.09
2017-08-28T06:36:27.423Z,22.24
2017-08-28T06:37:08.427Z,22.26
2017-08-28T06:37:48.987Z,22.36
2017-08-28T06:38:29.279Z,22.45
2017-08-28T06:39:09.756Z,22.45
2017-08-28T06:39:50.152Z,22.49
2017-08-28T06:40:30.577Z,22.48
2017-08-28T06:41:11.573Z,22.33
2017-08-28T06:41:52.117Z,22.26
2017-08-28T06:42:32.560Z,22.14
2017-08-28T06:43:12.953Z,22.21
2017-08-28T06:43:53.332Z,22.33
2017-08-28T06:44:33.724Z,22.42
2017-08-28T06:45:14.121Z,22.51
2017-08-28T06:45:54.547Z,22.52
2017-08-28T06:46:34.914Z,22.66
2017-08-28T06:47:15.383Z,22.61
2017-08-28T06:47:55.804Z,22.66
2017-08-28T06:48:36.182Z,22.64
2017-08-28T06:49:16.609Z,22.76
2017-08-28T06:49:57.146Z,22.69
2017-08-28T06:50:37.591Z,22.96
2017-08-28T06:51:17.948Z,23.04
2017-08-28T06:51:58.394Z,23.16
2017-08-28T06:52:38.844Z,23.15
2017-08-28T06:53:19.286Z,23.19
2017-08-28T06:53:59.745Z,23.22
2017-08-28T06:54:40.148Z,23.22
2017-08-28T06:55:20.522Z,23.22
2017-08-28T06:56:00.939Z,23.12
2017-08-28T06:56:41.439Z,23.11
2017-08-28T06:57:21.865Z,23.14
2017-08-28T06:58:02.354Z,23.11
2017-08-28T06:58:42.742Z,23.16
2017-08-28T06:59:23.233Z,23.14
2017-08-28T07:00:03.722Z,23.23
2017-08-28T07:00:44.109Z,23.18
2017-08-28T07:01:26.581Z,23.26
2017-08-28T07:02:07.962Z,23.34
2017-08-28T07:02:48.538Z,23.25
2017-08-28T07:03:28.980Z,23.22
2017-08-28T07:04:09.459Z,23.23
2017-08-28T07:04:49.827Z,23.26
2017-08-28T07:05:30.926Z,23.23
2017-08-28T07:06:11.303Z,23.26
2017-08-28T07:06:51.923Z,23.38
2017-08-28T07:07:32.351Z,23.44
2017-08-28T07:08:12.761Z,23.44
2017-08-28T07:08:53.208Z,23.56
2017-08-28T07:09:33.654Z,23.63
2017-08-28T07:10:14.159Z,23.72
2017-08-28T07:10:54.602Z,23.68
2017-08-28T07:11:35.741Z,23.72
2017-08-28T07:12:16.551Z,23.68
2017-08-28T07:12:56.970Z,23.81
2017-08-28T07:13:38.459Z,23.71
2017-08-28T07:14:20.101Z,23.69
2017-08-28T07:15:00.677Z,23.75
2017-08-28T07:15:41.069Z,23.77
2017-08-28T07:16:21.495Z,23.79
2017-08-28T07:17:02.273Z,23.82
2017-08-28T07:17:42.816Z,23.87
2017-08-28T07:18:25.733Z,23.75
2017-08-28T07:19:06.129Z,23.87
2017-08-28T07:19:46.610Z,23.84
2017-08-28T07:20:27.045Z,23.94
2017-08-28T07:21:07.472Z,23.99
2017-08-28T07:21:47.871Z,24.12
2017-08-28T07:22:28.455Z,24.19
2017-08-28T07:23:09.078Z,24.16
2017-08-28T07:23:49.411Z,24.24
2017-08-28T07:24:29.898Z,24.19
2017-08-28T07:25:10.271Z,24.23
2017-08-28T07:25:50.646Z,24.26
2017-08-28T07:26:31.088Z,24.3
2017-08-28T07:27:11.559Z,24.37
2017-08-28T07:27:53.492Z,24.41
2017-08-28T07:29:57.871Z,24.67
2017-08-28T07:30:54.141Z,24.7
2017-08-28T07:31:54.618Z,24.75
2017-08-28T07:32:54.600Z,24.92
2017-08-28T07:33:55.641Z,24.9
2017-08-28T07:34:54.512Z,24.97
2017-08-28T07:37:32.577Z,24.77
2017-08-28T07:38:13.512Z,24.82
2017-08-28T07:38:54.034Z,24.71
2017-08-28T07:39:34.874Z,24.9
2017-08-28T07:40:15.433Z,24.92
2017-08-28T07:40:56.289Z,25.19
2017-08-28T07:41:36.792Z,25.34
2017-08-28T07:42:17.238Z,25.36
2017-08-28T07:42:58.093Z,25.27
2017-08-28T07:43:39.246Z,25.36
2017-08-28T07:44:19.666Z,25.39
2017-08-28T07:45:00.261Z,25.45
2017-08-28T07:45:42.064Z,25.36
2017-08-28T07:46:22.341Z,25.41
2017-08-28T07:47:02.712Z,25.39
2017-08-28T07:47:43.285Z,25.31
2017-08-28T07:48:23.777Z,25.3
2017-08-28T07:49:05.293Z,25.38
2017-08-28T07:49:45.806Z,25.23
2017-08-28T07:50:27.711Z,25.04
2017-08-28T07:51:08.497Z,25.11
2017-08-28T07:51:57.649Z,25.04
2017-08-28T07:52:37.648Z,25.14
2017-08-28T07:53:18.078Z,25.04
2017-08-28T07:53:59.102Z,25.14
2017-08-28T07:54:39.392Z,25.12
2017-08-28T07:55:19.762Z,25.35
2017-08-28T07:56:02.194Z,25.35
2017-08-28T07:58:21.325Z,25.64
2017-08-28T07:59:24.926Z,25.69
2017-08-28T08:00:03.734Z,25.78
2017-08-28T08:00:44.184Z,25.78
2017-08-28T08:01:24.633Z,25.76
2017-08-28T08:02:05.292Z,25.85
2017-08-28T08:02:45.732Z,25.83
2017-08-28T08:03:26.813Z,25.9
2017-08-28T08:04:07.601Z,26.01
2017-08-28T08:04:48.637Z,26
2017-08-28T08:05:31.085Z,26.16
2017-08-28T08:06:12.625Z,26.21
2017-08-28T08:06:53.313Z,26.34
2017-08-28T08:07:33.785Z,26.35
2017-08-28T08:08:14.110Z,26.24
2017-08-28T08:08:54.692Z,26.29
2017-08-28T08:09:35.147Z,26.38
2017-08-28T08:10:15.498Z,26.38
2017-08-28T08:10:55.949Z,26.42
2017-08-28T08:11:36.456Z,26.54
2017-08-28T08:12:16.829Z,26.6
2017-08-28T08:12:57.159Z,26.65
2017-08-28T08:13:37.621Z,26.66
2017-08-28T08:14:18.076Z,26.71
2017-08-28T08:14:58.636Z,26.61
2017-08-28T08:15:39.019Z,26.49
2017-08-28T08:16:19.414Z,26.41
2017-08-28T08:16:59.774Z,26.36
2017-08-28T08:17:40.222Z,26.44
2017-08-28T08:18:22.738Z,26.5
2017-08-28T08:19:05.040Z,26.54
2017-08-28T08:19:45.120Z,26.57
2017-08-28T08:20:25.533Z,26.69
2017-08-28T08:21:06.086Z,26.81
2017-08-28T08:21:46.768Z,26.81
2017-08-28T08:22:27.188Z,26.75
2017-08-28T08:23:07.515Z,26.73
2017-08-28T08:23:48.036Z,26.69
2017-08-28T08:24:28.711Z,26.81
2017-08-28T08:25:10.055Z,26.94
2017-08-28T08:25:50.416Z,26.98
2017-08-28T08:26:30.915Z,27.13
2017-08-28T08:27:13.574Z,27.08
2017-08-28T08:27:54.300Z,27.23
2017-08-28T08:28:34.873Z,27.21
2017-08-28T08:29:15.409Z,27.21
2017-08-28T08:29:56.585Z,27.12
2017-08-28T08:30:37.850Z,27.28
2017-08-28T08:31:18.555Z,27.31
2017-08-28T08:31:59.301Z,27.25
2017-08-28T08:32:40.382Z,27.33
2017-08-28T08:33:20.469Z,27.28
2017-08-28T08:34:00.795Z,27.2
2017-08-28T08:34:41.345Z,27.35
2017-08-28T08:35:22.301Z,27.62
2017-08-28T08:36:02.807Z,27.63
2017-08-28T08:36:43.195Z,27.68
2017-08-28T08:37:23.844Z,27.59
2017-08-28T08:38:04.358Z,27.58
2017-08-28T08:38:45.065Z,27.83
2017-08-28T08:39:25.528Z,27.91
2017-08-28T08:40:05.986Z,27.99
2017-08-28T08:40:46.482Z,28.01
2017-08-28T08:41:27.373Z,28.18
2017-08-28T08:42:08.108Z,28.3
2017-08-28T08:42:48.647Z,28.23
2017-08-28T08:43:29.365Z,28.11
2017-08-28T08:44:10.482Z,27.93
2017-08-28T08:44:51.006Z,27.93
2017-08-28T08:45:33.645Z,27.84
2017-08-28T08:46:13.664Z,27.71
2017-08-28T08:46:54.896Z,27.62
2017-08-28T08:47:41.794Z,27.55
2017-08-28T08:58:10.340Z,28.61
2017-08-28T09:00:07.240Z,28.91
2017-08-28T09:01:01.735Z,29.12
2017-08-28T09:01:41.720Z,29.08
2017-08-28T09:02:22.210Z,29.03
2017-08-28T09:03:02.709Z,29.03
2017-08-28T09:03:43.135Z,28.97
2017-08-28T09:04:24.173Z,29.07
2017-08-28T09:05:04.784Z,29.02
2017-08-28T09:05:45.731Z,28.97
2017-08-28T09:06:26.493Z,28.92
2017-08-28T09:07:07.073Z,28.8
2017-08-28T09:07:48.281Z,28.73
2017-08-28T09:08:29.156Z,28.52
2017-08-28T09:09:09.735Z,28.5
2017-08-28T09:09:51.403Z,28.42
2017-08-28T09:10:31.919Z,28.39